Aérodrome :
LOGIN :

S'inscrire | Disclaimer

   EN    FR    IT 

 










Légende :    VFR   VFR Marginal   IFR   IFR Intensif   IFR Très Intensif
Visi : 
Plafond : 
>= 8 km
>= 3000ft
5 à 8 km
1000 à 3000 ft
1500m à 5 km
500 à 1000 ft
800 à 1500m
200 à 500 ft
< 800m
< 200 ft
Symboles :   Orages  Brouillard  Fortes neiges  Fortes précipitations  Vent > 20 kt
SIGMETs :   Divers  Orages  Givrage  Turbulence  Onde Orograph.  Cendres Volcan.






- Altitude de l'aérodrome : 348 ft
- Code IATA : STN


EGSS - London Stansted

DERNIER METAR :
  • 211120Z AUTO VRB03KT 7000 SCT014 04/03 Q1042

METARs EXPIRÉS :
  • 211050Z AUTO VRB02KT 9000 NCD 03/03 Q1042
  • 211020Z AUTO VRB02KT 6000 NCD 02/02 Q1042
  • 210950Z AUTO 30004KT 5000 BR FEW014 02/01 Q1042
  • 210920Z AUTO 30003KT 4200 BR OVC012 01/00 Q1042
  • 210850Z AUTO 30003KT 2900 BR OVC011 00/00 Q1042

TAF TAF EGSS
Valide du 21 à 12h jusqu'au 22 à 18h UTC


211102Z 2112/2218 29004KT 9000 FEW015
BECMG 2112/2115 9999
PROB30
TEMPO 2112/2116 BKN013
BECMG 2116/2119 8000
TEMPO 2118/2124 3000 BR BKN005
BECMG 2200/2203 3000 BR BKN003
PROB40 2200/2212 0200 FG BKN001
BECMG 2212/2215 6000 NSW
BECMG 2215/2218 3000 BR
ATIS : +44 1279 669 325



MET'MAP, la Météo Aéronautique d'un coup d'oeil ! - Copyright ORBIFLY Décembre 2007 - Disclaimer

ORBIFLY MET'MAP TEAM :

Programmation & Développement : Alexandra Zaïnal
Sur une idée originale de : Baudouin d'Aumeries
Assistance à la programmation : Marc-Olivier Méhu
Soutien technique & logistique : Manuel Goepfert

Contact : metmap@orbifly.com




SOURCES & CREDITS :

   NOAA